Time;durP1;ratioP1;P1;durP2;ratioP2;P2;SDS_P1;SDS_P2;PMS_P1;PMS_P2;Temp;Humidity;BMP_temperature;BMP_pressure;BME280_temperature;BME280_humidity;BME280_pressure;Samples;Min_cycle;Max_cycle;Signal;HPM_P1;HPM_P2
2021/01/17 00:00:54;;;;;;;50.33;31.67;;;1.70;85.30;;;;;;5013164;28;20235;-62
2021/01/17 00:03:21;;;;;;;47.70;30.07;;;1.70;85.40;;;;;;5014102;28;20219;-62
2021/01/17 00:05:49;;;;;;;51.67;32.97;;;1.70;85.40;;;;;;5013840;28;20549;-63
2021/01/17 00:08:18;;;;;;;46.70;31.20;;;1.80;85.40;;;;;;5015008;28;20212;-62
2021/01/17 00:10:45;;;;;;;53.77;33.47;;;1.80;85.50;;;;;;5012771;28;20519;-62
2021/01/17 00:13:13;;;;;;;48.77;31.97;;;1.80;85.60;;;;;;5014213;28;20215;-62
2021/01/17 00:15:39;;;;;;;51.23;32.93;;;1.80;85.60;;;;;;5013261;28;20644;-62
2021/01/17 00:18:09;;;;;;;43.53;29.90;;;1.80;85.60;;;;;;5006607;28;20212;-62
2021/01/17 00:20:36;;;;;;;47.77;31.13;;;1.90;85.70;;;;;;5013155;28;20235;-62
2021/01/17 00:23:05;;;;;;;55.30;31.87;;;1.90;85.70;;;;;;5013773;28;20208;-62
2021/01/17 00:25:33;;;;;;;47.50;30.93;;;1.90;85.70;;;;;;5013524;28;20747;-62
2021/01/17 00:28:01;;;;;;;54.43;33.77;;;1.90;85.80;;;;;;5013692;28;20234;-62
2021/01/17 00:30:32;;;;;;;50.27;32.57;;;1.90;85.80;;;;;;5013246;28;20216;-62
2021/01/17 00:33:01;;;;;;;51.93;33.57;;;1.90;85.80;;;;;;5012986;28;20223;-62
2021/01/17 00:35:30;;;;;;;52.03;33.37;;;1.90;85.80;;;;;;5013576;28;20229;-62
2021/01/17 00:38:00;;;;;;;47.20;32.53;;;1.90;85.90;;;;;;5012876;28;20583;-62
2021/01/17 00:40:27;;;;;;;48.63;32.37;;;1.90;86.00;;;;;;5013929;28;20281;-62
2021/01/17 00:42:55;;;;;;;57.50;34.97;;;1.90;86.00;;;;;;5012249;28;20204;-62
2021/01/17 00:45:25;;;;;;;48.27;31.23;;;1.90;86.10;;;;;;5028890;28;20219;-63
2021/01/17 00:47:52;;;;;;;46.20;31.63;;;1.90;86.20;;;;;;5012327;28;20212;-62
2021/01/17 00:50:20;;;;;;;52.57;33.80;;;1.90;86.20;;;;;;5012549;28;20212;-62
2021/01/17 00:52:56;;;;;;;53.17;34.83;;;1.90;87.00;;;;;;5012717;28;20215;-62
2021/01/17 00:55:23;;;;;;;53.93;35.80;;;1.90;86.30;;;;;;5007455;28;20215;-62
2021/01/17 00:57:50;;;;;;;55.37;35.40;;;2.00;86.40;;;;;;5013072;28;20230;-62
2021/01/17 01:00:18;;;;;;;56.10;35.73;;;2.00;86.40;;;;;;5007069;28;20242;-62
2021/01/17 01:02:45;;;;;;;54.70;37.10;;;2.00;86.40;;;;;;5013665;28;20222;-62
2021/01/17 01:05:13;;;;;;;52.77;36.50;;;2.00;86.40;;;;;;5012764;28;20239;-62
2021/01/17 01:07:42;;;;;;;55.57;36.70;;;2.10;86.50;;;;;;5012460;28;20644;-61
2021/01/17 01:10:10;;;;;;;57.90;36.20;;;2.10;86.50;;;;;;5008593;28;20214;-62
2021/01/17 01:12:37;;;;;;;56.17;35.67;;;2.10;86.50;;;;;;5012226;28;20524;-62
2021/01/17 01:15:06;;;;;;;52.77;36.07;;;2.10;86.50;;;;;;5009314;28;20244;-62
2021/01/17 01:17:33;;;;;;;56.73;36.07;;;2.10;86.50;;;;;;5011934;28;20215;-63
2021/01/17 01:19:59;;;;;;;60.50;37.07;;;2.10;86.50;;;;;;5012463;28;20208;-62
2021/01/17 01:22:26;;;;;;;54.70;34.27;;;2.10;86.50;;;;;;5011546;28;20212;-63
2021/01/17 01:24:52;;;;;;;57.03;35.77;;;2.10;86.50;;;;;;5012960;28;20215;-63
2021/01/17 01:27:19;;;;;;;51.30;34.20;;;2.10;86.60;;;;;;5027154;28;20212;-62
2021/01/17 01:29:45;;;;;;;55.60;34.50;;;2.10;86.70;;;;;;5012149;28;20208;-62
2021/01/17 01:32:13;;;;;;;51.37;36.23;;;2.10;86.70;;;;;;5011459;28;20230;-62
2021/01/17 01:34:39;;;;;;;54.50;36.20;;;2.10;86.70;;;;;;5027019;28;20230;-62
2021/01/17 01:37:06;;;;;;;47.07;33.63;;;2.10;86.80;;;;;;5003731;28;20262;-63
2021/01/17 01:39:33;;;;;;;56.80;36.00;;;2.10;86.80;;;;;;5011998;28;20212;-63
2021/01/17 01:42:07;;;;;;;49.93;34.70;;;2.10;86.80;;;;;;5011566;28;20694;-63
2021/01/17 01:44:34;;;;;;;54.33;35.83;;;2.10;86.80;;;;;;5011355;28;20624;-63
2021/01/17 01:47:02;;;;;;;49.10;35.27;;;2.10;86.90;;;;;;5011363;28;20208;-63
2021/01/17 01:49:29;;;;;;;50.50;35.27;;;2.10;86.90;;;;;;5011833;28;20199;-63
2021/01/17 01:52:00;;;;;;;50.37;34.50;;;2.10;86.90;;;;;;5012146;28;20234;-63
2021/01/17 01:54:26;;;;;;;53.13;34.30;;;2.10;87.60;;;;;;5008286;28;20218;-63
2021/01/17 01:56:54;;;;;;;47.90;33.40;;;2.10;87.10;;;;;;5011718;28;20215;-63
2021/01/17 01:59:21;;;;;;;49.40;34.53;;;2.10;87.10;;;;;;5017590;28;20278;-63
2021/01/17 02:01:53;;;;;;;53.27;34.47;;;2.10;87.10;;;;;;5010865;28;20309;-63
2021/01/17 02:04:20;;;;;;;54.93;34.47;;;2.10;87.10;;;;;;5011695;28;20204;-62
2021/01/17 02:07:05;;;;;;;47.77;33.03;;;2.20;87.20;;;;;;5011385;28;20212;-62
2021/01/17 02:09:31;;;;;;;50.93;33.47;;;2.20;87.30;;;;;;5010780;28;20208;-62
2021/01/17 02:12:08;;;;;;;52.93;34.23;;;2.20;87.30;;;;;;5011767;28;20208;-63
2021/01/17 02:14:37;;;;;;;51.67;35.30;;;2.20;87.30;;;;;;5010192;28;20412;-62
2021/01/17 02:17:12;;;;;;;51.13;33.80;;;2.20;87.20;;;;;;5011908;28;20215;-62
2021/01/17 02:20:09;;;;;;;47.53;36.23;;;2.20;87.20;;;;;;5011437;28;20211;-62
2021/01/17 02:22:58;;;;;;;53.37;35.97;;;2.30;87.30;;;;;;5010760;28;20644;-62
2021/01/17 02:25:27;;;;;;;54.97;34.63;;;2.30;87.20;;;;;;5006902;28;20215;-62
2021/01/17 02:27:57;;;;;;;50.03;35.50;;;2.30;87.00;;;;;;5011825;28;20488;-62
2021/01/17 02:30:26;;;;;;;53.70;35.27;;;2.30;87.10;;;;;;5012279;28;20204;-62
2021/01/17 02:33:18;;;;;;;52.67;35.03;;;2.30;87.10;;;;;;5012202;28;20214;-62
2021/01/17 02:35:46;;;;;;;50.00;35.97;;;2.30;87.20;;;;;;4998684;28;20223;-62
2021/01/17 02:38:19;;;;;;;52.03;35.67;;;2.30;87.10;;;;;;5007446;28;20309;-62
2021/01/17 02:40:48;;;;;;;51.10;34.67;;;2.30;87.20;;;;;;5010659;28;20239;-62
2021/01/17 02:43:15;;;;;;;51.10;35.13;;;2.30;87.30;;;;;;5008096;28;20535;-63
2021/01/17 02:45:41;;;;;;;51.93;35.87;;;2.30;87.40;;;;;;5012043;28;20235;-63
2021/01/17 02:48:08;;;;;;;51.57;35.47;;;2.30;87.40;;;;;;5012023;28;20208;-62
2021/01/17 02:50:35;;;;;;;52.57;37.63;;;2.30;87.40;;;;;;5009224;28;20223;-63
2021/01/17 02:53:14;;;;;;;54.90;36.63;;;2.30;87.30;;;;;;5011633;28;20212;-63
2021/01/17 02:55:41;;;;;;;47.90;34.20;;;2.30;87.20;;;;;;5011157;28;20256;-63
2021/01/17 02:58:10;;;;;;;50.47;36.20;;;2.30;87.20;;;;;;5007610;28;20246;-63
2021/01/17 03:00:39;;;;;;;52.63;36.00;;;2.40;87.30;;;;;;5011602;28;20235;-62
2021/01/17 03:03:08;;;;;;;49.17;34.70;;;2.40;87.30;;;;;;5019116;28;20235;-62
2021/01/17 03:05:39;;;;;;;45.50;34.57;;;2.30;87.20;;;;;;5010970;28;20204;-63
2021/01/17 03:08:08;;;;;;;45.33;34.27;;;2.30;87.10;;;;;;5010487;28;20226;-63
2021/01/17 03:10:34;;;;;;;47.20;34.47;;;2.30;87.10;;;;;;5011064;28;20216;-63
2021/01/17 03:13:01;;;;;;;51.93;36.57;;;2.30;87.10;;;;;;5010832;28;20455;-63
2021/01/17 03:15:33;;;;;;;49.80;34.23;;;2.30;87.10;;;;;;5014793;28;20212;-63
2021/01/17 03:18:01;;;;;;;49.90;35.83;;;2.30;87.10;;;;;;5030404;28;20212;-63
2021/01/17 03:20:28;;;;;;;48.00;34.60;;;2.30;87.20;;;;;;5014839;28;20762;-63
2021/01/17 03:22:54;;;;;;;45.30;33.23;;;2.30;87.30;;;;;;5013788;28;20540;-63
2021/01/17 03:25:21;;;;;;;54.07;35.60;;;2.30;88.00;;;;;;5017038;28;20212;-63
2021/01/17 03:27:48;;;;;;;47.07;33.07;;;2.30;87.40;;;;;;5014125;28;20214;-63
2021/01/17 03:30:15;;;;;;;47.63;32.23;;;2.30;87.50;;;;;;5014863;28;20299;-63
2021/01/17 03:32:41;;;;;;;47.33;35.27;;;2.30;87.60;;;;;;5029700;28;20208;-63
2021/01/17 03:35:09;;;;;;;46.37;34.50;;;2.30;87.70;;;;;;5014079;28;20216;-63
2021/01/17 03:37:37;;;;;;;49.57;34.63;;;2.30;87.80;;;;;;5015026;28;20243;-63
2021/01/17 03:40:04;;;;;;;49.40;34.33;;;2.20;87.80;;;;;;5014093;28;20219;-63
2021/01/17 03:42:31;;;;;;;45.17;33.97;;;2.20;87.80;;;;;;5014397;28;20216;-63
2021/01/17 03:44:57;;;;;;;46.27;33.53;;;2.20;88.00;;;;;;5028996;28;20227;-62
2021/01/17 03:47:24;;;;;;;46.80;33.83;;;2.20;88.10;;;;;;5014436;28;20203;-62
2021/01/17 03:49:51;;;;;;;46.20;34.07;;;2.20;88.10;;;;;;5014447;28;20635;-62
2021/01/17 03:52:17;;;;;;;50.70;34.70;;;2.20;88.20;;;;;;5014067;28;20208;-63
2021/01/17 03:54:48;;;;;;;50.87;35.70;;;2.20;88.10;;;;;;5014023;28;20227;-63
2021/01/17 03:57:14;;;;;;;48.70;34.63;;;2.10;88.20;;;;;;5013514;28;20216;-63
2021/01/17 03:59:41;;;;;;;47.80;35.00;;;2.20;88.40;;;;;;5028753;28;20226;-63
2021/01/17 04:02:07;;;;;;;48.03;35.27;;;2.20;88.50;;;;;;5014137;28;20250;-63
2021/01/17 04:04:34;;;;;;;44.23;33.13;;;2.20;88.50;;;;;;5014114;28;20212;-63
2021/01/17 04:07:01;;;;;;;50.73;36.47;;;2.20;88.50;;;;;;5005648;28;20681;-62
2021/01/17 04:09:27;;;;;;;48.50;35.60;;;2.20;88.50;;;;;;5013564;28;20204;-63
2021/01/17 04:11:54;;;;;;;48.50;34.73;;;2.20;88.40;;;;;;5013179;28;20211;-63
2021/01/17 04:14:20;;;;;;;50.10;35.87;;;2.30;88.50;;;;;;5013403;28;20208;-63
2021/01/17 04:16:51;;;;;;;49.27;35.20;;;2.30;88.40;;;;;;5014179;28;20439;-63
2021/01/17 04:19:19;;;;;;;48.03;36.17;;;2.30;88.40;;;;;;5012940;28;20208;-63
2021/01/17 04:21:48;;;;;;;52.10;35.90;;;2.30;88.30;;;;;;5013599;28;20323;-63
2021/01/17 04:24:15;;;;;;;50.13;34.50;;;2.30;88.30;;;;;;5012773;28;20211;-63
2021/01/17 04:26:42;;;;;;;43.27;33.67;;;2.40;88.40;;;;;;5013094;28;20218;-63
2021/01/17 04:29:08;;;;;;;49.90;35.23;;;2.40;88.30;;;;;;5013741;28;20219;-62
2021/01/17 04:31:39;;;;;;;50.90;35.13;;;2.40;88.30;;;;;;5013845;28;20216;-62
2021/01/17 04:34:06;;;;;;;52.43;33.90;;;2.40;88.30;;;;;;5005293;28;20306;-62
2021/01/17 04:36:33;;;;;;;47.23;36.43;;;2.40;88.30;;;;;;5012996;28;20235;-62
2021/01/17 04:39:00;;;;;;;45.03;34.40;;;2.40;88.30;;;;;;5013225;28;20648;-62
2021/01/17 04:41:28;;;;;;;46.13;34.03;;;2.40;88.20;;;;;;5012153;28;20679;-61
2021/01/17 04:43:59;;;;;;;46.27;33.87;;;2.40;88.10;;;;;;5012681;28;20227;-62
2021/01/17 04:46:30;;;;;;;48.07;32.47;;;2.40;88.20;;;;;;5012758;28;20250;-63
2021/01/17 04:49:00;;;;;;;46.60;32.63;;;2.40;88.30;;;;;;5027943;28;20244;-63
2021/01/17 04:51:28;;;;;;;43.50;31.97;;;2.40;88.20;;;;;;5013439;28;20301;-63
2021/01/17 04:53:57;;;;;;;47.20;32.17;;;2.40;88.10;;;;;;5012672;28;20219;-62
2021/01/17 04:56:29;;;;;;;43.93;30.27;;;2.40;88.00;;;;;;5012870;28;20216;-62
2021/01/17 04:59:08;;;;;;;48.60;32.30;;;2.40;88.00;;;;;;5012378;28;21565;-63
2021/01/17 05:01:46;;;;;;;44.53;31.90;;;2.40;87.60;;;;;;5012133;28;20240;-63
2021/01/17 05:04:37;;;;;;;45.83;30.20;;;2.40;87.60;;;;;;5010972;28;20204;-62
2021/01/17 05:07:14;;;;;;;44.97;30.80;;;2.40;87.60;;;;;;5028159;28;20203;-63
2021/01/17 05:09:48;;;;;;;44.70;30.80;;;2.40;87.60;;;;;;5012303;28;20545;-63
2021/01/17 05:12:15;;;;;;;44.50;31.03;;;2.50;87.60;;;;;;5006825;28;20210;-63
2021/01/17 05:14:51;;;;;;;44.00;32.47;;;2.50;87.60;;;;;;5012541;28;20208;-62
2021/01/17 05:17:24;;;;;;;42.20;30.50;;;2.50;87.60;;;;;;5012746;28;20215;-62
2021/01/17 05:19:51;;;;;;;48.33;31.50;;;2.50;87.60;;;;;;5013275;28;20835;-62
2021/01/17 05:22:21;;;;;;;42.37;31.10;;;2.60;87.60;;;;;;5011508;28;20251;-63
2021/01/17 05:24:56;;;;;;;46.30;31.87;;;2.50;87.60;;;;;;5012863;28;20222;-62
2021/01/17 05:27:22;;;;;;;44.57;30.63;;;2.60;87.50;;;;;;5011711;28;20635;-63
2021/01/17 05:29:49;;;;;;;48.60;30.53;;;2.60;87.40;;;;;;5004968;28;20282;-62
2021/01/17 05:32:16;;;;;;;47.30;30.87;;;2.50;87.40;;;;;;5012859;28;20219;-63
2021/01/17 05:34:43;;;;;;;50.30;34.70;;;2.50;87.40;;;;;;5011699;28;20249;-63
2021/01/17 05:37:12;;;;;;;50.97;34.73;;;2.40;87.50;;;;;;5010896;28;20322;-63
2021/01/17 05:40:05;;;;;;;44.10;33.73;;;2.40;87.70;;;;;;5026708;28;20219;-63
2021/01/17 05:42:40;;;;;;;48.53;33.87;;;2.40;87.90;;;;;;5007379;28;20245;-63
2021/01/17 05:45:18;;;;;;;49.07;35.33;;;2.40;87.90;;;;;;5004194;28;20210;-63
2021/01/17 05:47:50;;;;;;;50.50;35.00;;;2.40;87.80;;;;;;5012095;28;20289;-63
2021/01/17 05:50:18;;;;;;;53.37;33.87;;;2.50;87.70;;;;;;5015497;28;20212;-63
2021/01/17 05:52:54;;;;;;;55.23;36.93;;;2.40;87.60;;;;;;5024635;28;20208;-62
2021/01/17 05:55:34;;;;;;;47.00;34.47;;;2.40;87.60;;;;;;5005572;28;20612;-63
2021/01/17 05:58:21;;;;;;;51.63;34.93;;;2.50;87.60;;;;;;5011555;28;20215;-63
2021/01/17 06:00:48;;;;;;;47.27;34.97;;;2.50;87.70;;;;;;5008391;28;20239;-63
2021/01/17 06:03:25;;;;;;;48.70;34.43;;;2.50;87.70;;;;;;5011758;28;20216;-63
2021/01/17 06:06:05;;;;;;;52.77;35.97;;;2.50;87.70;;;;;;5012387;28;20531;-62
2021/01/17 06:08:33;;;;;;;49.10;34.43;;;2.50;87.70;;;;;;5012513;28;20215;-62
2021/01/17 06:11:08;;;;;;;48.17;33.20;;;2.50;87.80;;;;;;5013106;28;20688;-62
2021/01/17 06:13:37;;;;;;;51.07;33.90;;;2.50;87.70;;;;;;5028459;28;20307;-63
2021/01/17 06:16:21;;;;;;;48.93;34.13;;;2.50;87.50;;;;;;5013299;28;20649;-63
2021/01/17 06:19:15;;;;;;;45.53;31.77;;;2.50;87.70;;;;;;5012507;28;20212;-63
2021/01/17 06:21:48;;;;;;;43.67;32.07;;;2.50;87.80;;;;;;5005970;28;20232;-63
2021/01/17 06:24:16;;;;;;;42.17;31.03;;;2.40;87.80;;;;;;5027557;28;20278;-63
2021/01/17 06:26:43;;;;;;;48.37;33.30;;;2.40;87.90;;;;;;5012946;28;20208;-63
2021/01/17 06:29:12;;;;;;;43.17;30.70;;;2.40;88.10;;;;;;5012487;28;20697;-63
2021/01/17 06:31:39;;;;;;;48.17;33.87;;;2.30;88.10;;;;;;5027931;28;20220;-62
2021/01/17 06:34:09;;;;;;;46.97;32.97;;;2.30;88.10;;;;;;5006904;28;20295;-63
2021/01/17 06:36:37;;;;;;;48.73;33.87;;;2.40;88.30;;;;;;5012412;28;20208;-63
2021/01/17 06:39:17;;;;;;;47.70;33.10;;;2.40;88.30;;;;;;5011352;28;20235;-63
2021/01/17 06:41:44;;;;;;;47.10;33.03;;;2.40;88.40;;;;;;5009157;28;20228;-63
2021/01/17 06:44:13;;;;;;;51.27;32.40;;;2.40;88.40;;;;;;5026742;28;20204;-63
2021/01/17 06:46:45;;;;;;;47.80;33.03;;;2.40;88.50;;;;;;5010945;28;20547;-63
2021/01/17 06:49:15;;;;;;;46.60;32.53;;;2.40;88.60;;;;;;5006729;28;20210;-63
2021/01/17 06:51:43;;;;;;;50.40;32.97;;;2.40;88.60;;;;;;5013606;28;20230;-63
2021/01/17 06:54:11;;;;;;;46.90;32.37;;;2.40;88.70;;;;;;5013471;28;20243;-63
2021/01/17 06:56:39;;;;;;;46.57;31.90;;;2.50;88.80;;;;;;5028726;28;20813;-63
2021/01/17 06:59:07;;;;;;;55.57;31.50;;;2.50;88.80;;;;;;5011529;28;20211;-63
2021/01/17 07:01:42;;;;;;;51.83;34.30;;;2.50;88.80;;;;;;5013482;28;20251;-63
2021/01/17 07:04:12;;;;;;;45.73;32.20;;;2.50;88.80;;;;;;5014029;28;20200;-63
2021/01/17 07:07:28;;;;;;;46.87;32.70;;;2.50;88.70;;;;;;5014078;28;20208;-63
2021/01/17 07:10:19;;;;;;;43.53;32.17;;;2.50;88.70;;;;;;5009538;28;20218;-63
2021/01/17 07:13:02;;;;;;;44.17;33.17;;;2.60;88.80;;;;;;5027652;28;20211;-63
2021/01/17 07:15:35;;;;;;;51.67;34.07;;;2.60;88.80;;;;;;5013734;28;20247;-63
2021/01/17 07:18:23;;;;;;;43.13;30.47;;;2.60;88.70;;;;;;5013442;28;20223;-63
2021/01/17 07:20:50;;;;;;;47.63;33.30;;;2.60;88.60;;;;;;5028040;28;20246;-63
2021/01/17 07:23:18;;;;;;;44.03;32.43;;;2.70;88.60;;;;;;5013612;28;20211;-63
2021/01/17 07:25:47;;;;;;;47.63;32.07;;;2.60;88.50;;;;;;5013224;28;20204;-63
2021/01/17 07:28:18;;;;;;;56.67;38.43;;;2.70;88.60;;;;;;5013496;28;20208;-62
2021/01/17 07:31:01;;;;;;;46.63;32.40;;;2.70;88.70;;;;;;5013376;28;20546;-63
2021/01/17 07:33:37;;;;;;;44.10;32.27;;;2.70;88.80;;;;;;5026796;28;20637;-63
2021/01/17 07:36:10;;;;;;;46.10;32.63;;;2.70;88.80;;;;;;5011905;28;20211;-63
2021/01/17 07:38:45;;;;;;;47.47;33.23;;;2.60;88.70;;;;;;4982398;28;882394;-63
2021/01/17 07:41:13;;;;;;;44.50;32.07;;;2.60;88.80;;;;;;5007223;28;20231;-63
2021/01/17 07:43:42;;;;;;;46.07;32.03;;;2.60;88.90;;;;;;5028060;28;20218;-63
2021/01/17 07:46:17;;;;;;;45.87;32.07;;;2.60;88.80;;;;;;5021721;28;20227;-63
2021/01/17 07:48:48;;;;;;;49.40;33.37;;;2.60;88.80;;;;;;5012762;28;20211;-63
2021/01/17 07:51:16;;;;;;;46.67;33.63;;;2.70;88.90;;;;;;5014279;28;20227;-63
2021/01/17 07:53:45;;;;;;;43.73;32.77;;;2.70;88.90;;;;;;5013184;28;20216;-63
2021/01/17 07:56:34;;;;;;;45.40;32.63;;;2.70;88.80;;;;;;5013122;28;20552;-63
2021/01/17 07:59:03;;;;;;;45.07;32.47;;;2.70;88.80;;;;;;5031108;28;20282;-63
2021/01/17 08:01:31;;;;;;;43.47;31.40;;;2.80;88.70;;;;;;5014386;28;20668;-63
2021/01/17 08:04:03;;;;;;;45.27;33.43;;;2.70;88.60;;;;;;5014339;28;20298;-63
2021/01/17 08:06:36;;;;;;;42.63;33.10;;;2.70;88.70;;;;;;5014198;28;20208;-63
2021/01/17 08:09:10;;;;;;;46.47;33.63;;;2.70;88.80;;;;;;5014534;28;20306;-63
2021/01/17 08:11:41;;;;;;;57.50;34.73;;;2.70;88.80;;;;;;5013742;28;20223;-63
2021/01/17 08:14:26;;;;;;;49.73;34.07;;;2.80;88.70;;;;;;5010706;28;20319;-63
2021/01/17 08:17:15;;;;;;;49.93;35.03;;;2.70;88.60;;;;;;5014502;28;20233;-63
2021/01/17 08:19:44;;;;;;;44.63;34.27;;;2.70;88.50;;;;;;5014411;28;20251;-63
2021/01/17 08:22:17;;;;;;;50.23;34.43;;;2.70;88.40;;;;;;5013008;28;20246;-63
2021/01/17 08:24:47;;;;;;;52.60;34.73;;;2.70;88.50;;;;;;5011413;28;20208;-63
2021/01/17 08:27:33;;;;;;;45.03;33.50;;;2.70;88.50;;;;;;5013783;28;20717;-63
2021/01/17 08:30:07;;;;;;;52.27;34.77;;;2.70;88.70;;;;;;5005942;28;20224;-62
2021/01/17 08:32:49;;;;;;;47.03;34.43;;;2.60;88.80;;;;;;5011951;28;20208;-62
2021/01/17 08:35:18;;;;;;;51.53;37.77;;;2.60;89.00;;;;;;5029421;28;20222;-63
2021/01/17 08:38:18;;;;;;;50.67;34.93;;;2.60;89.20;;;;;;5014215;28;20251;-63
2021/01/17 08:40:48;;;;;;;49.77;35.57;;;2.60;89.40;;;;;;5011240;28;20223;-63
2021/01/17 08:43:16;;;;;;;50.60;35.20;;;2.60;89.40;;;;;;5013894;28;20204;-63
2021/01/17 08:45:45;;;;;;;56.10;38.40;;;2.60;89.40;;;;;;5010617;28;20520;-63
2021/01/17 08:48:17;;;;;;;50.77;36.60;;;2.60;89.60;;;;;;5014718;28;20243;-63
2021/01/17 08:50:45;;;;;;;50.43;36.53;;;2.70;89.80;;;;;;5014027;28;20553;-63
2021/01/17 08:53:33;;;;;;;50.97;36.67;;;2.70;89.60;;;;;;5014517;28;20215;-63
2021/01/17 08:56:20;;;;;;;52.90;36.50;;;2.70;89.60;;;;;;5009773;28;20295;-63
2021/01/17 08:58:49;;;;;;;50.57;36.70;;;2.70;89.60;;;;;;5013273;28;20219;-63
2021/01/17 09:01:17;;;;;;;57.63;37.07;;;2.70;89.70;;;;;;5013885;28;20234;-62
2021/01/17 09:03:44;;;;;;;51.23;35.73;;;2.70;89.80;;;;;;5013066;28;20603;-62
2021/01/17 09:06:11;;;;;;;50.13;36.43;;;2.70;90.20;;;;;;5013247;28;20211;-62
2021/01/17 09:09:06;;;;;;;52.07;35.63;;;2.80;89.90;;;;;;5013406;28;20207;-62
2021/01/17 09:11:38;;;;;;;54.93;37.17;;;2.80;90.00;;;;;;5008429;28;20207;-63
2021/01/17 09:14:11;;;;;;;50.30;36.17;;;2.80;90.00;;;;;;5013014;28;20211;-63
2021/01/17 09:16:42;;;;;;;54.27;38.23;;;2.90;89.80;;;;;;5009612;28;20215;-63
2021/01/17 09:19:10;;;;;;;49.77;36.27;;;3.00;89.90;;;;;;5009074;28;20224;-63
2021/01/17 09:21:38;;;;;;;50.00;37.80;;;3.00;89.80;;;;;;5012925;28;20231;-62
2021/01/17 09:24:12;;;;;;;51.00;35.10;;;3.00;89.70;;;;;;5013131;28;20241;-63
2021/01/17 09:26:43;;;;;;;53.03;36.17;;;3.00;89.60;;;;;;5012622;28;20211;-63
2021/01/17 09:29:25;;;;;;;48.93;34.27;;;3.00;89.80;;;;;;5008620;28;20214;-63
2021/01/17 09:31:57;;;;;;;54.77;36.47;;;3.10;89.90;;;;;;5011396;28;20220;-63
2021/01/17 09:34:26;;;;;;;53.43;35.03;;;3.10;89.90;;;;;;5012311;28;20215;-63
2021/01/17 09:36:54;;;;;;;50.70;36.33;;;3.10;89.90;;;;;;5012592;28;20256;-63
2021/01/17 09:39:28;;;;;;;55.67;35.67;;;3.10;89.90;;;;;;5013298;28;20608;-62
2021/01/17 09:41:55;;;;;;;52.57;38.13;;;3.20;89.80;;;;;;5013435;28;20234;-63
2021/01/17 09:44:22;;;;;;;52.80;37.30;;;3.20;89.90;;;;;;5013454;28;20199;-63
2021/01/17 09:46:48;;;;;;;53.73;36.30;;;3.30;90.00;;;;;;5012228;28;20215;-63
2021/01/17 09:49:20;;;;;;;49.37;36.53;;;3.30;89.90;;;;;;5012919;28;20625;-63
2021/01/17 09:51:47;;;;;;;50.50;35.37;;;3.30;89.70;;;;;;5012880;28;20546;-63
2021/01/17 09:54:14;;;;;;;47.07;35.20;;;3.40;89.70;;;;;;5013386;28;20214;-63
2021/01/17 09:56:41;;;;;;;46.17;33.37;;;3.40;89.60;;;;;;5012441;28;20211;-63
2021/01/17 09:59:21;;;;;;;48.37;33.33;;;3.40;89.60;;;;;;5010955;28;20222;-63
2021/01/17 10:01:48;;;;;;;46.13;33.50;;;3.50;90.00;;;;;;5012992;28;20236;-63
2021/01/17 10:04:27;;;;;;;49.33;34.57;;;3.50;89.40;;;;;;5011970;28;20518;-63
2021/01/17 10:06:56;;;;;;;47.87;34.80;;;3.50;89.20;;;;;;5012570;28;20230;-63
2021/01/17 10:09:24;;;;;;;49.47;34.47;;;3.60;89.20;;;;;;5013065;28;20218;-63
2021/01/17 10:11:58;;;;;;;51.80;35.07;;;3.60;89.20;;;;;;5010896;28;20211;-63
2021/01/17 10:14:50;;;;;;;42.97;32.97;;;3.70;89.20;;;;;;5012415;28;20215;-63
2021/01/17 10:17:18;;;;;;;44.10;32.97;;;3.80;89.20;;;;;;5004532;28;20295;-63
2021/01/17 10:19:47;;;;;;;47.00;32.27;;;3.80;89.10;;;;;;5011960;28;20207;-63
2021/01/17 10:22:16;;;;;;;43.13;32.67;;;3.80;89.00;;;;;;5012197;28;20322;-63
2021/01/17 10:24:43;;;;;;;42.67;31.93;;;3.90;88.90;;;;;;5015871;28;20235;-63
2021/01/17 10:27:11;;;;;;;38.33;28.77;;;3.90;89.60;;;;;;5015363;28;20258;-63
2021/01/17 10:29:40;;;;;;;45.73;31.27;;;3.90;88.90;;;;;;5015805;28;20238;-61
2021/01/17 10:32:13;;;;;;;45.47;32.90;;;3.90;88.80;;;;;;5016398;28;20215;-61
2021/01/17 10:34:42;;;;;;;47.87;33.00;;;3.90;88.90;;;;;;5015290;28;20243;-61
2021/01/17 10:37:12;;;;;;;39.07;29.53;;;3.90;88.90;;;;;;5015662;28;20690;-61
2021/01/17 10:39:55;;;;;;;41.60;30.00;;;3.90;89.00;;;;;;5014566;28;20232;-61
2021/01/17 10:42:30;;;;;;;44.97;30.80;;;4.00;89.00;;;;;;5030877;28;20678;-62
2021/01/17 10:45:10;;;;;;;39.47;29.73;;;4.00;89.00;;;;;;5015603;28;20211;-63
2021/01/17 10:47:55;;;;;;;43.20;30.10;;;4.00;88.90;;;;;;5029793;28;20671;-63
2021/01/17 10:50:23;;;;;;;42.87;30.77;;;4.10;88.80;;;;;;5011904;28;20208;-63
2021/01/17 10:53:03;;;;;;;41.03;30.93;;;4.10;88.70;;;;;;5015699;28;20659;-61
2021/01/17 10:55:37;;;;;;;43.50;31.57;;;4.10;88.60;;;;;;5014975;28;20303;-61
2021/01/17 10:58:12;;;;;;;42.80;29.87;;;4.20;88.50;;;;;;5015148;28;20650;-63
2021/01/17 11:00:49;;;;;;;43.73;31.50;;;4.30;88.50;;;;;;5013516;28;20215;-64
2021/01/17 11:03:27;;;;;;;42.23;28.67;;;4.40;88.20;;;;;;5008091;28;20326;-63
2021/01/17 11:06:16;;;;;;;36.77;27.40;;;4.40;87.80;;;;;;5013610;28;20211;-63
2021/01/17 11:08:44;;;;;;;38.33;27.70;;;4.40;87.50;;;;;;5014811;28;20678;-61
2021/01/17 11:11:12;;;;;;;35.30;25.97;;;4.50;87.30;;;;;;5014377;28;20674;-60
2021/01/17 11:13:39;;;;;;;33.23;25.87;;;4.50;87.40;;;;;;5014652;28;20650;-60
2021/01/17 11:16:06;;;;;;;40.67;27.57;;;4.50;87.30;;;;;;5014169;28;20207;-60
2021/01/17 11:18:35;;;;;;;37.83;26.43;;;4.60;87.30;;;;;;5014932;28;20208;-60
2021/01/17 11:21:03;;;;;;;36.90;26.37;;;4.60;87.20;;;;;;5013540;28;20208;-60
2021/01/17 11:23:30;;;;;;;37.83;26.97;;;4.60;86.60;;;;;;5009973;28;20296;-60
2021/01/17 11:26:07;;;;;;;36.90;25.83;;;4.60;86.60;;;;;;5012954;28;20211;-60
2021/01/17 11:28:34;;;;;;;33.70;24.93;;;4.60;86.80;;;;;;5022947;28;20640;-60
2021/01/17 11:31:17;;;;;;;32.93;24.53;;;4.70;86.90;;;;;;5013393;28;20208;-60
2021/01/17 11:33:44;;;;;;;37.03;23.77;;;4.70;86.70;;;;;;5009149;28;20212;-60
2021/01/17 11:36:11;;;;;;;30.20;24.07;;;4.70;86.50;;;;;;5013635;28;20212;-61
2021/01/17 11:38:49;;;;;;;31.60;22.30;;;4.70;86.40;;;;;;5009559;28;20400;-61
2021/01/17 11:41:18;;;;;;;29.53;21.17;;;4.70;86.40;;;;;;5010356;28;20679;-61
2021/01/17 11:43:46;;;;;;;28.37;20.73;;;4.70;86.40;;;;;;5014129;28;20212;-62
2021/01/17 11:46:14;;;;;;;28.50;20.47;;;4.70;86.30;;;;;;5030095;28;20291;-61
2021/01/17 11:48:43;;;;;;;29.57;21.43;;;4.70;86.30;;;;;;5013852;28;20619;-62
2021/01/17 11:51:11;;;;;;;27.03;21.03;;;4.70;86.20;;;;;;5013560;28;20210;-61
2021/01/17 11:53:38;;;;;;;31.67;21.77;;;4.80;86.20;;;;;;5014978;28;20641;-62
2021/01/17 11:56:11;;;;;;;31.67;21.73;;;4.80;86.00;;;;;;5014113;28;20204;-61
2021/01/17 11:58:39;;;;;;;29.57;21.87;;;4.80;86.00;;;;;;5010882;28;20247;-62
2021/01/17 12:01:07;;;;;;;26.03;20.27;;;4.90;85.90;;;;;;5027479;28;20204;-62
2021/01/17 12:03:45;;;;;;;28.33;20.93;;;4.90;86.00;;;;;;5014047;28;20216;-62
2021/01/17 12:06:16;;;;;;;27.73;20.23;;;4.90;86.00;;;;;;5012644;28;20208;-62
2021/01/17 12:08:55;;;;;;;28.90;21.23;;;4.90;86.00;;;;;;5014181;28;20214;-62
2021/01/17 12:11:32;;;;;;;29.07;20.87;;;4.90;85.90;;;;;;5014086;28;20638;-62
2021/01/17 12:14:14;;;;;;;29.30;21.20;;;5.00;85.90;;;;;;5013081;28;20207;-62
2021/01/17 12:16:44;;;;;;;27.90;20.17;;;5.00;85.60;;;;;;5014329;28;20706;-62
2021/01/17 12:19:13;;;;;;;31.83;23.47;;;5.00;85.40;;;;;;5010322;28;20208;-62
2021/01/17 12:21:41;;;;;;;34.37;24.17;;;4.90;85.40;;;;;;5013866;28;20660;-63
2021/01/17 12:24:10;;;;;;;32.00;25.23;;;5.00;85.50;;;;;;5007659;28;20211;-63
2021/01/17 12:26:38;;;;;;;36.27;27.07;;;5.00;85.50;;;;;;5012743;28;20212;-63
2021/01/17 12:29:05;;;;;;;38.07;26.63;;;5.00;85.60;;;;;;5013935;28;20211;-62
2021/01/17 12:31:32;;;;;;;35.93;26.70;;;5.00;85.60;;;;;;5013683;28;20961;-63
2021/01/17 12:33:59;;;;;;;38.27;26.20;;;5.10;85.60;;;;;;5013012;28;20217;-62
2021/01/17 12:36:28;;;;;;;33.27;25.00;;;5.20;85.60;;;;;;5012451;28;20219;-62
2021/01/17 12:38:56;;;;;;;38.60;27.03;;;5.30;85.50;;;;;;5012861;28;20252;-62
2021/01/17 12:41:26;;;;;;;34.93;25.43;;;5.30;85.40;;;;;;5013342;28;20567;-62
2021/01/17 12:43:53;;;;;;;37.23;26.40;;;5.40;85.30;;;;;;5012781;28;20212;-62
2021/01/17 12:46:20;;;;;;;37.93;27.70;;;5.40;85.20;;;;;;5010586;28;20311;-62
2021/01/17 12:48:47;;;;;;;39.90;28.40;;;5.40;85.30;;;;;;5013011;28;20218;-62
2021/01/17 12:51:14;;;;;;;38.97;28.53;;;5.30;85.00;;;;;;5011762;28;20208;-62
2021/01/17 12:53:43;;;;;;;38.17;27.53;;;5.30;85.10;;;;;;5013095;28;20219;-62
2021/01/17 12:56:10;;;;;;;42.53;26.40;;;5.40;85.20;;;;;;5005533;28;20309;-62